Time;durP1;ratioP1;P1;durP2;ratioP2;P2;SDS_P1;SDS_P2;PMS_P1;PMS_P2;Temp;Humidity;BMP_temperature;BMP_pressure;BME280_temperature;BME280_humidity;BME280_pressure;Samples;Min_cycle;Max_cycle;Signal;HPM_P1;HPM_P2
2022/11/05 00:09:35;;;;;;;12.07;9.90;;;7.40;99.90;;;;;;5075881;28;20326;-79
2022/11/05 00:17:34;;;;;;;12.00;10.67;;;7.40;99.90;;;;;;5075741;28;20202;-79
2022/11/05 00:20:01;;;;;;;12.03;10.67;;;7.40;99.90;;;;;;5075413;28;20201;-79
2022/11/05 00:25:18;;;;;;;14.87;11.53;;;7.40;99.90;;;;;;5075528;28;20204;-80
2022/11/05 00:27:49;;;;;;;15.30;11.17;;;7.40;99.90;;;;;;5075335;28;20197;-80
2022/11/05 00:30:18;;;;;;;16.63;11.40;;;7.40;99.90;;;;;;5075075;28;20246;-79
2022/11/05 00:32:48;;;;;;;15.10;11.33;;;7.40;99.90;;;;;;5075163;28;20197;-80
2022/11/05 00:35:15;;;;;;;15.83;11.40;;;7.30;99.90;;;;;;5075067;28;20247;-78
2022/11/05 00:37:42;;;;;;;15.43;11.70;;;7.30;99.90;;;;;;5074951;28;20605;-80
2022/11/05 00:40:11;;;;;;;13.13;10.90;;;7.40;99.90;;;;;;5074872;28;20718;-80
2022/11/05 00:45:24;;;;;;;13.30;11.87;;;7.40;99.90;;;;;;5074944;28;20671;-80
2022/11/05 00:50:36;;;;;;;17.80;12.23;;;7.40;99.90;;;;;;5075101;28;20196;-80
2022/11/05 00:53:03;;;;;;;17.53;12.40;;;7.40;99.90;;;;;;5074933;28;20251;-81
2022/11/05 00:55:36;;;;;;;15.93;12.63;;;7.40;99.90;;;;;;5074580;28;20654;-80
2022/11/05 00:58:05;;;;;;;18.37;12.70;;;7.40;99.90;;;;;;5074768;28;20622;-81
2022/11/05 01:00:32;;;;;;;13.93;12.43;;;7.40;99.90;;;;;;5074672;28;20250;-81
2022/11/05 01:03:02;;;;;;;16.40;12.50;;;7.40;99.90;;;;;;5074620;28;20248;-81
2022/11/05 01:05:31;;;;;;;16.43;11.93;;;7.40;99.90;;;;;;5074673;28;20230;-81
2022/11/05 01:07:58;;;;;;;14.23;12.10;;;7.40;99.90;;;;;;5074414;28;20208;-82
2022/11/05 01:10:25;;;;;;;16.93;12.53;;;7.40;99.90;;;;;;5074404;28;20257;-82
2022/11/05 01:12:51;;;;;;;14.87;12.33;;;7.50;99.90;;;;;;5074447;28;20721;-82
2022/11/05 01:15:20;;;;;;;13.67;11.10;;;7.40;99.90;;;;;;5074519;28;20256;-82
2022/11/05 01:17:46;;;;;;;13.50;11.87;;;7.50;99.90;;;;;;5074587;28;20516;-82
2022/11/05 01:20:15;;;;;;;14.40;11.17;;;7.50;99.90;;;;;;5074314;28;20207;-83
2022/11/05 01:22:42;;;;;;;13.23;11.33;;;7.50;99.90;;;;;;5074156;28;20268;-81
2022/11/05 01:25:10;;;;;;;16.73;11.30;;;7.50;99.90;;;;;;5073994;28;20201;-81
2022/11/05 01:27:36;;;;;;;12.90;11.07;;;7.60;99.90;;;;;;5073910;28;20206;-81
2022/11/05 01:30:05;;;;;;;13.07;10.63;;;7.60;99.90;;;;;;5074167;28;20197;-81
2022/11/05 01:32:32;;;;;;;12.90;10.97;;;7.60;99.90;;;;;;5073774;28;20652;-83
2022/11/05 01:34:59;;;;;;;12.20;10.90;;;7.60;99.90;;;;;;5074095;28;20193;-82
2022/11/05 01:37:27;;;;;;;12.90;11.50;;;7.60;99.90;;;;;;5073909;28;20246;-81
2022/11/05 01:39:53;;;;;;;14.13;11.13;;;7.70;99.90;;;;;;5073715;28;20256;-83
2022/11/05 01:42:23;;;;;;;13.07;10.83;;;7.60;99.90;;;;;;5073887;28;20263;-82
2022/11/05 01:44:54;;;;;;;12.73;11.03;;;7.60;99.90;;;;;;5073993;28;20200;-82
2022/11/05 01:47:28;;;;;;;11.30;10.20;;;7.60;99.90;;;;;;5073781;28;20250;-81
2022/11/05 01:49:58;;;;;;;12.70;10.90;;;7.60;99.90;;;;;;5073693;28;20253;-79
2022/11/05 01:52:29;;;;;;;12.27;10.53;;;7.60;99.90;;;;;;5073481;28;20205;-78
2022/11/05 01:54:56;;;;;;;12.17;10.03;;;7.50;99.90;;;;;;5073654;28;20247;-77
2022/11/05 01:57:23;;;;;;;13.40;10.37;;;7.40;99.90;;;;;;5073439;28;20205;-77
2022/11/05 01:59:56;;;;;;;13.63;11.53;;;7.40;99.90;;;;;;5073143;28;20204;-77
2022/11/05 02:02:24;;;;;;;12.23;10.93;;;7.40;99.90;;;;;;5073473;28;20217;-77
2022/11/05 02:04:54;;;;;;;13.20;11.03;;;7.40;99.90;;;;;;5073063;28;20596;-76
2022/11/05 02:07:23;;;;;;;12.33;10.47;;;7.40;99.90;;;;;;5073310;28;20734;-77
2022/11/05 02:09:57;;;;;;;14.17;11.23;;;7.40;99.90;;;;;;5073303;28;20584;-77
2022/11/05 02:12:24;;;;;;;14.37;11.63;;;7.40;99.90;;;;;;5073150;28;20205;-77
2022/11/05 02:14:50;;;;;;;16.63;12.23;;;7.40;99.90;;;;;;5073162;28;20197;-77
2022/11/05 02:17:24;;;;;;;12.90;10.90;;;7.30;99.90;;;;;;5073057;28;20274;-77
2022/11/05 02:20:25;;;;;;;14.73;11.20;;;7.30;99.90;;;;;;5073313;28;20198;-77
2022/11/05 02:23:35;;;;;;;15.73;12.00;;;7.30;99.90;;;;;;5073056;28;20228;-77
2022/11/05 02:26:36;;;;;;;13.87;11.77;;;7.30;99.90;;;;;;5072886;28;20537;-77
2022/11/05 02:29:32;;;;;;;18.40;12.57;;;7.30;99.90;;;;;;5073089;28;20201;-77
2022/11/05 02:32:07;;;;;;;15.03;12.80;;;7.30;99.90;;;;;;5072938;28;20201;-77
2022/11/05 02:34:45;;;;;;;15.23;12.03;;;7.20;99.90;;;;;;5072913;28;20630;-77
2022/11/05 02:37:17;;;;;;;17.93;13.30;;;7.20;99.90;;;;;;5072800;28;20600;-78
2022/11/05 02:39:52;;;;;;;18.47;13.67;;;7.20;99.90;;;;;;5072917;28;20197;-78
2022/11/05 02:42:29;;;;;;;16.97;13.87;;;7.20;99.90;;;;;;5072797;28;20250;-78
2022/11/05 02:45:05;;;;;;;17.77;13.07;;;7.10;99.90;;;;;;5072924;28;20197;-78
2022/11/05 02:47:41;;;;;;;16.87;13.97;;;7.10;99.90;;;;;;5072929;28;20208;-78
2022/11/05 02:50:18;;;;;;;18.53;13.30;;;7.10;99.90;;;;;;5072840;28;20203;-78
2022/11/05 02:52:58;;;;;;;19.20;14.77;;;7.10;99.90;;;;;;5072637;28;20211;-77
2022/11/05 02:55:31;;;;;;;16.47;13.87;;;7.20;99.90;;;;;;5072883;28;20197;-78
2022/11/05 02:57:59;;;;;;;20.13;14.60;;;7.20;99.90;;;;;;5072867;28;20198;-78
2022/11/05 03:00:41;;;;;;;22.87;15.43;;;7.10;99.90;;;;;;5072864;28;20682;-79
2022/11/05 03:03:18;;;;;;;19.00;15.47;;;7.10;99.90;;;;;;5072552;28;20221;-78
2022/11/05 03:05:58;;;;;;;20.13;14.93;;;7.20;99.90;;;;;;5072421;28;20629;-78
2022/11/05 03:08:35;;;;;;;19.00;15.07;;;7.20;99.90;;;;;;5072709;28;20226;-78
2022/11/05 03:11:10;;;;;;;21.37;16.07;;;7.20;99.90;;;;;;5073195;28;20250;-78
2022/11/05 03:13:46;;;;;;;28.63;16.70;;;7.20;99.90;;;;;;5076710;28;20200;-77
2022/11/05 03:16:20;;;;;;;23.23;15.93;;;7.20;99.90;;;;;;5077048;28;20204;-78
2022/11/05 03:18:54;;;;;;;22.57;16.50;;;7.20;99.90;;;;;;5076743;28;20201;-79
2022/11/05 03:21:26;;;;;;;23.03;17.10;;;7.20;99.90;;;;;;5076639;28;20200;-78
2022/11/05 03:23:58;;;;;;;22.03;16.43;;;7.20;99.90;;;;;;5076391;28;20300;-78
2022/11/05 03:26:30;;;;;;;23.83;16.67;;;7.20;99.90;;;;;;5076325;28;20265;-78
2022/11/05 03:29:00;;;;;;;22.27;16.80;;;7.20;99.90;;;;;;5076302;28;20586;-78
2022/11/05 03:31:29;;;;;;;24.57;17.87;;;7.20;99.90;;;;;;5076320;28;20201;-77
2022/11/05 03:34:00;;;;;;;21.70;17.20;;;7.20;99.90;;;;;;5076285;28;20247;-78
2022/11/05 03:36:31;;;;;;;24.87;17.73;;;7.20;99.90;;;;;;5076173;28;20266;-78
2022/11/05 03:39:01;;;;;;;21.90;17.97;;;7.20;99.90;;;;;;5076108;28;20218;-78
2022/11/05 03:41:29;;;;;;;22.13;17.43;;;7.20;99.90;;;;;;5076058;28;20692;-78
2022/11/05 03:44:01;;;;;;;21.93;17.17;;;7.20;99.90;;;;;;5076020;28;20230;-78
2022/11/05 03:46:31;;;;;;;26.83;17.23;;;7.20;99.90;;;;;;5075998;28;20205;-79
2022/11/05 03:49:03;;;;;;;24.03;17.43;;;7.20;99.90;;;;;;5075956;28;20201;-78
2022/11/05 03:51:38;;;;;;;25.60;17.83;;;7.20;99.90;;;;;;5075882;28;20205;-79
2022/11/05 03:54:06;;;;;;;27.13;17.37;;;7.20;99.90;;;;;;5076087;28;20202;-78
2022/11/05 03:56:38;;;;;;;21.83;16.83;;;7.20;99.90;;;;;;5075897;28;20197;-78
2022/11/05 03:59:07;;;;;;;24.17;18.00;;;7.20;99.90;;;;;;5075760;28;20250;-77
2022/11/05 04:01:36;;;;;;;22.73;16.80;;;7.20;99.90;;;;;;5075875;28;20201;-77
2022/11/05 04:04:05;;;;;;;25.43;18.27;;;7.20;99.90;;;;;;5075194;28;20233;-78
2022/11/05 04:14:44;;;;;;;24.20;18.20;;;7.20;99.90;;;;;;5074427;28;20213;-77
2022/11/05 04:17:10;;;;;;;22.60;18.33;;;7.20;99.90;;;;;;5074292;28;20269;-78
2022/11/05 04:25:09;;;;;;;28.10;19.67;;;7.30;99.90;;;;;;5074521;28;20317;-77
2022/11/05 04:27:35;;;;;;;28.63;20.37;;;7.30;99.90;;;;;;5074260;28;20205;-77
2022/11/05 04:30:20;;;;;;;28.40;21.03;;;7.30;99.90;;;;;;5074100;28;20252;-78
2022/11/05 04:33:01;;;;;;;28.47;20.10;;;7.30;99.90;;;;;;5074095;28;20245;-77
2022/11/05 04:35:31;;;;;;;30.60;21.53;;;7.20;99.90;;;;;;5074097;28;20220;-78
2022/11/05 04:37:58;;;;;;;29.03;20.80;;;7.20;99.90;;;;;;5074143;28;20201;-77
2022/11/05 04:40:26;;;;;;;30.07;21.13;;;7.20;99.90;;;;;;5073992;28;20230;-77
2022/11/05 04:42:54;;;;;;;28.80;19.77;;;7.20;99.90;;;;;;5074020;28;20195;-77
2022/11/05 04:45:21;;;;;;;35.17;20.67;;;7.20;99.90;;;;;;5073726;28;20252;-77
2022/11/05 04:47:47;;;;;;;28.43;19.57;;;7.20;99.90;;;;;;5073992;28;20200;-77
2022/11/05 04:50:14;;;;;;;27.67;20.00;;;7.20;99.90;;;;;;5073701;28;20904;-77
2022/11/05 04:52:42;;;;;;;27.93;19.80;;;7.20;99.90;;;;;;5074135;28;20201;-77
2022/11/05 04:55:09;;;;;;;29.77;20.40;;;7.20;99.90;;;;;;5073797;28;20197;-77
2022/11/05 04:57:36;;;;;;;26.87;19.23;;;7.20;99.90;;;;;;5073613;28;20201;-78
2022/11/05 05:00:04;;;;;;;32.43;21.03;;;7.10;99.90;;;;;;5073526;28;20201;-77
2022/11/05 05:02:31;;;;;;;28.07;20.13;;;7.10;99.90;;;;;;5073714;28;20197;-78
2022/11/05 05:04:58;;;;;;;27.43;20.17;;;7.10;99.90;;;;;;5037918;28;1032750;-78
2022/11/05 05:07:25;;;;;;;30.50;20.90;;;7.20;99.90;;;;;;5074587;28;20204;-77
2022/11/05 05:09:53;;;;;;;31.33;21.07;;;7.20;99.90;;;;;;5074479;28;20223;-77
2022/11/05 05:12:20;;;;;;;27.23;19.57;;;7.20;99.90;;;;;;5074330;28;20288;-76
2022/11/05 05:14:48;;;;;;;28.27;19.93;;;7.20;99.90;;;;;;5074260;28;20193;-77
2022/11/05 05:17:15;;;;;;;30.80;20.83;;;7.20;99.90;;;;;;5074721;28;20213;-77
2022/11/05 05:22:26;;;;;;;29.23;19.90;;;7.20;99.90;;;;;;5074465;28;20196;-78
2022/11/05 05:24:55;;;;;;;29.50;20.03;;;7.20;99.90;;;;;;5073967;28;20248;-77
2022/11/05 05:27:22;;;;;;;31.27;21.20;;;7.20;99.90;;;;;;5074229;28;20226;-78
2022/11/05 05:29:49;;;;;;;31.90;21.43;;;7.20;99.90;;;;;;5074191;28;20205;-78
2022/11/05 05:32:16;;;;;;;32.03;21.80;;;7.20;99.90;;;;;;5074117;28;20247;-77
2022/11/05 05:34:42;;;;;;;30.17;21.00;;;7.20;99.90;;;;;;5073036;28;20709;-78
2022/11/05 05:37:09;;;;;;;33.07;21.90;;;7.20;99.90;;;;;;5073851;28;20193;-78
2022/11/05 05:39:36;;;;;;;32.70;20.97;;;7.20;99.90;;;;;;5073699;28;20326;-78
2022/11/05 05:42:04;;;;;;;30.20;20.27;;;7.20;99.90;;;;;;5073918;28;20254;-77
2022/11/05 05:44:30;;;;;;;31.60;21.97;;;7.20;99.90;;;;;;5073742;28;20221;-77
2022/11/05 05:46:57;;;;;;;31.23;20.30;;;7.20;99.90;;;;;;5073793;28;20198;-78
2022/11/05 05:49:24;;;;;;;32.37;21.87;;;7.20;99.90;;;;;;5073667;28;20222;-79
2022/11/05 05:51:50;;;;;;;35.83;21.50;;;7.20;99.90;;;;;;5073590;28;20246;-78
2022/11/05 05:54:17;;;;;;;30.53;21.23;;;7.20;99.90;;;;;;5073446;28;20198;-77
2022/11/05 05:56:44;;;;;;;36.53;22.30;;;7.30;99.90;;;;;;5073638;28;20208;-77
2022/11/05 05:59:12;;;;;;;33.53;22.93;;;7.20;99.90;;;;;;5073599;28;20193;-78
2022/11/05 06:01:39;;;;;;;34.73;22.43;;;7.30;99.90;;;;;;5073443;28;20226;-79
2022/11/05 06:04:06;;;;;;;31.77;22.23;;;7.30;99.90;;;;;;5073265;28;20297;-78
2022/11/05 06:06:32;;;;;;;31.33;21.50;;;7.30;99.90;;;;;;5073374;28;20201;-77
2022/11/05 06:08:59;;;;;;;35.00;22.67;;;7.30;99.90;;;;;;5073190;28;20208;-78
2022/11/05 06:11:26;;;;;;;34.27;21.70;;;7.30;99.90;;;;;;5073356;28;20200;-77
2022/11/05 06:13:53;;;;;;;35.13;23.17;;;7.30;99.90;;;;;;5073265;28;20210;-78
2022/11/05 06:16:21;;;;;;;32.30;22.10;;;7.30;99.90;;;;;;5073193;28;20201;-77
2022/11/05 06:18:48;;;;;;;34.30;22.67;;;7.40;99.90;;;;;;5073119;28;20270;-78
2022/11/05 06:21:16;;;;;;;34.57;22.00;;;7.40;99.90;;;;;;5073097;28;20266;-78
2022/11/05 06:23:44;;;;;;;39.60;25.57;;;7.40;99.90;;;;;;5073285;28;20275;-78
2022/11/05 06:26:13;;;;;;;38.23;23.23;;;7.40;99.90;;;;;;5073094;28;20193;-78
2022/11/05 06:28:40;;;;;;;33.97;22.93;;;7.40;99.90;;;;;;5073107;28;20197;-76
2022/11/05 06:31:07;;;;;;;33.43;23.33;;;7.50;99.90;;;;;;5072988;28;20201;-78
2022/11/05 06:33:35;;;;;;;35.67;23.57;;;7.40;99.90;;;;;;5072946;28;20201;-78
2022/11/05 06:36:03;;;;;;;36.77;24.30;;;7.50;99.90;;;;;;5072828;28;20193;-78
2022/11/05 06:38:32;;;;;;;36.80;24.00;;;7.40;99.90;;;;;;5072989;28;20197;-78
2022/11/05 06:40:59;;;;;;;34.47;21.97;;;7.50;99.90;;;;;;5072841;28;20598;-77
2022/11/05 06:43:26;;;;;;;39.50;23.93;;;7.50;99.90;;;;;;5072680;28;20549;-78
2022/11/05 06:45:53;;;;;;;39.03;24.23;;;7.50;99.90;;;;;;5072681;28;20196;-78
2022/11/05 06:48:20;;;;;;;35.27;23.90;;;7.50;99.90;;;;;;5072551;28;20254;-78
2022/11/05 06:50:48;;;;;;;36.23;25.17;;;7.50;99.90;;;;;;5072901;28;20197;-77
2022/11/05 06:53:14;;;;;;;39.40;23.97;;;7.60;99.90;;;;;;5072828;28;20247;-78
2022/11/05 06:55:43;;;;;;;42.10;25.97;;;7.60;99.90;;;;;;5072828;28;20200;-78
2022/11/05 06:58:10;;;;;;;36.83;23.97;;;7.60;99.90;;;;;;5072707;28;20193;-75
2022/11/05 07:00:37;;;;;;;35.73;24.20;;;7.70;99.90;;;;;;5072563;28;20200;-77
2022/11/05 07:03:04;;;;;;;35.63;24.03;;;7.70;99.90;;;;;;5072464;28;20246;-77
2022/11/05 07:05:31;;;;;;;37.43;23.20;;;7.70;99.90;;;;;;5072522;28;20237;-77
2022/11/05 07:07:59;;;;;;;37.90;23.40;;;7.70;99.90;;;;;;5072644;28;20195;-78
2022/11/05 07:10:26;;;;;;;31.87;22.07;;;7.70;99.90;;;;;;5072628;28;20246;-77
2022/11/05 07:12:53;;;;;;;33.30;23.07;;;7.70;99.90;;;;;;5072446;28;20200;-78
2022/11/05 07:15:19;;;;;;;34.97;23.23;;;7.70;99.90;;;;;;5072466;28;20205;-77
2022/11/05 07:17:46;;;;;;;31.57;21.77;;;7.80;99.90;;;;;;5072654;28;20231;-77
2022/11/05 07:20:13;;;;;;;33.07;23.00;;;7.80;99.90;;;;;;5073486;28;20672;-77
2022/11/05 07:22:39;;;;;;;36.03;23.63;;;7.80;99.90;;;;;;5072486;28;20484;-77
2022/11/05 07:25:08;;;;;;;34.03;22.23;;;7.80;99.90;;;;;;5072424;28;20294;-74
2022/11/05 07:27:38;;;;;;;32.10;21.70;;;7.80;99.90;;;;;;5072249;28;20254;-76
2022/11/05 07:30:08;;;;;;;32.47;21.97;;;7.80;99.90;;;;;;5072213;28;20198;-76
2022/11/05 07:32:38;;;;;;;32.63;22.47;;;7.90;99.90;;;;;;5072399;28;20201;-74
2022/11/05 07:35:05;;;;;;;38.57;22.23;;;7.90;99.90;;;;;;5072360;28;20197;-76
2022/11/05 07:37:32;;;;;;;29.73;21.83;;;7.90;99.90;;;;;;5072275;28;20193;-76
2022/11/05 07:39:59;;;;;;;34.90;22.03;;;8.00;99.90;;;;;;5072315;28;20623;-76
2022/11/05 07:42:27;;;;;;;30.70;20.97;;;8.10;99.90;;;;;;5072144;28;20201;-76
2022/11/05 07:44:53;;;;;;;35.90;22.17;;;8.20;99.90;;;;;;5072166;28;20692;-74
2022/11/05 07:47:20;;;;;;;32.03;21.77;;;8.30;99.90;;;;;;5072242;28;20201;-73
2022/11/05 07:49:46;;;;;;;32.57;21.90;;;8.40;99.90;;;;;;5072246;28;20201;-74
2022/11/05 07:52:13;;;;;;;31.27;21.50;;;8.40;99.90;;;;;;5072159;28;20274;-73
2022/11/05 07:54:40;;;;;;;29.93;20.20;;;8.40;99.90;;;;;;5072077;28;20606;-75
2022/11/05 07:57:06;;;;;;;27.23;19.40;;;8.50;99.90;;;;;;5072337;28;20254;-73
2022/11/05 07:59:34;;;;;;;27.10;17.70;;;8.60;99.90;;;;;;5075823;28;20193;-73
2022/11/05 08:02:01;;;;;;;22.70;17.53;;;8.60;99.90;;;;;;5075529;28;20200;-75
2022/11/05 08:04:28;;;;;;;23.90;17.43;;;8.70;99.90;;;;;;5075325;28;20280;-75
2022/11/05 08:06:54;;;;;;;22.80;17.73;;;8.80;99.90;;;;;;5075658;28;20197;-73
2022/11/05 08:09:21;;;;;;;25.13;17.23;;;8.70;99.90;;;;;;5075603;28;20648;-75
2022/11/05 08:11:47;;;;;;;20.47;16.47;;;8.80;99.90;;;;;;5075501;28;20201;-74
2022/11/05 08:14:14;;;;;;;21.80;16.57;;;8.80;99.90;;;;;;5075695;28;20216;-73
2022/11/05 08:16:42;;;;;;;21.57;17.07;;;8.80;99.90;;;;;;5075612;28;20231;-73
2022/11/05 08:19:09;;;;;;;21.77;16.80;;;8.80;99.90;;;;;;5075146;28;20197;-75
2022/11/05 08:21:35;;;;;;;23.67;17.30;;;8.80;99.90;;;;;;5075417;28;20590;-74
2022/11/05 08:24:02;;;;;;;23.80;17.60;;;8.90;99.90;;;;;;5074973;28;20648;-75
2022/11/05 08:26:29;;;;;;;21.80;17.10;;;8.90;99.90;;;;;;5075429;28;20201;-75
2022/11/05 08:28:55;;;;;;;23.50;18.70;;;8.90;99.90;;;;;;5075345;28;20260;-75
2022/11/05 08:31:22;;;;;;;23.70;17.93;;;9.00;99.90;;;;;;5075147;28;20250;-80
2022/11/05 08:33:50;;;;;;;24.57;18.60;;;9.10;99.90;;;;;;5075321;28;20205;-75
2022/11/05 08:36:17;;;;;;;21.23;17.37;;;9.00;99.90;;;;;;5075020;28;20334;-74
2022/11/05 08:38:43;;;;;;;21.10;17.00;;;9.10;99.90;;;;;;5074838;28;20197;-74
2022/11/05 08:41:10;;;;;;;22.00;16.70;;;9.20;99.90;;;;;;5084412;28;20192;-74
2022/11/05 08:43:37;;;;;;;22.17;17.40;;;9.20;99.90;;;;;;5112910;28;20332;-74
2022/11/05 08:46:04;;;;;;;21.77;17.67;;;9.30;99.90;;;;;;5095187;28;20660;-74
2022/11/05 08:48:30;;;;;;;20.37;16.70;;;9.30;99.90;;;;;;5074730;28;20246;-74
2022/11/05 08:51:00;;;;;;;19.50;16.07;;;9.20;99.90;;;;;;5075150;28;20250;-73
2022/11/05 08:53:27;;;;;;;20.27;17.00;;;9.20;99.90;;;;;;5074776;28;20197;-74
2022/11/05 08:55:58;;;;;;;20.50;16.97;;;9.20;99.90;;;;;;5075453;28;20243;-73
2022/11/05 08:58:24;;;;;;;21.83;16.50;;;9.30;99.90;;;;;;5074790;28;20193;-73
2022/11/05 09:00:51;;;;;;;22.00;16.97;;;9.30;99.90;;;;;;5078666;28;20200;-74
2022/11/05 09:03:18;;;;;;;20.30;16.70;;;9.40;99.90;;;;;;5094516;28;20196;-73
2022/11/05 09:05:45;;;;;;;21.60;15.60;;;9.50;99.90;;;;;;5087904;28;20692;-73
2022/11/05 09:08:15;;;;;;;20.50;15.27;;;9.60;99.90;;;;;;5074092;28;20606;-74
2022/11/05 09:10:42;;;;;;;21.67;16.17;;;9.80;99.90;;;;;;5073610;28;20189;-74
2022/11/05 09:13:09;;;;;;;18.43;15.77;;;9.90;99.90;;;;;;5074176;28;20226;-74
2022/11/05 09:15:36;;;;;;;20.77;15.23;;;10.00;99.90;;;;;;5078134;28;20192;-73
2022/11/05 09:18:04;;;;;;;16.93;13.37;;;10.10;99.90;;;;;;5094004;28;20241;-74
2022/11/05 09:20:31;;;;;;;17.67;14.27;;;10.40;99.90;;;;;;5093921;28;20258;-74
2022/11/05 09:22:58;;;;;;;17.00;13.23;;;10.70;99.90;;;;;;5094392;28;20193;-74
2022/11/05 09:25:26;;;;;;;15.77;13.03;;;10.80;99.90;;;;;;5093990;28;20224;-74
2022/11/05 09:27:53;;;;;;;15.10;12.77;;;11.10;99.90;;;;;;5094136;28;20722;-74
2022/11/05 09:30:20;;;;;;;18.10;13.27;;;10.80;99.90;;;;;;5093868;28;20728;-74
2022/11/05 09:32:47;;;;;;;15.67;12.70;;;10.80;99.90;;;;;;5094089;28;20215;-74
2022/11/05 09:35:13;;;;;;;15.70;11.87;;;10.80;99.90;;;;;;5094169;28;20204;-74
2022/11/05 09:37:40;;;;;;;14.60;11.87;;;10.70;99.90;;;;;;5073725;28;20680;-75
2022/11/05 09:40:07;;;;;;;12.40;10.93;;;10.80;99.90;;;;;;5073782;28;20259;-76
2022/11/05 09:42:40;;;;;;;12.70;11.23;;;10.70;99.90;;;;;;5073619;28;20660;-75
2022/11/05 09:45:13;;;;;;;14.40;11.37;;;10.60;99.90;;;;;;5073365;28;20224;-75
2022/11/05 09:47:43;;;;;;;16.47;12.00;;;10.50;99.90;;;;;;5073491;28;20660;-75
2022/11/05 09:50:16;;;;;;;15.03;11.93;;;10.40;99.90;;;;;;5073138;28;20579;-75
2022/11/05 09:52:43;;;;;;;15.13;12.50;;;10.40;99.90;;;;;;5073549;28;20197;-75
2022/11/05 09:55:19;;;;;;;16.10;13.70;;;10.50;99.90;;;;;;5073283;28;20246;-75
2022/11/05 09:57:52;;;;;;;14.53;12.93;;;10.60;99.90;;;;;;5073356;28;20246;-75
2022/11/05 10:00:19;;;;;;;15.73;13.13;;;10.50;99.90;;;;;;5073610;28;20281;-77
2022/11/05 10:02:50;;;;;;;14.77;13.03;;;10.50;99.90;;;;;;5073239;28;20193;-76
2022/11/05 10:05:19;;;;;;;17.73;14.13;;;10.50;99.90;;;;;;5072927;28;20290;-76
2022/11/05 10:07:49;;;;;;;15.23;13.13;;;10.50;99.90;;;;;;5073437;28;20291;-76
2022/11/05 10:10:30;;;;;;;16.83;13.63;;;10.60;99.90;;;;;;5073084;28;20246;-75
2022/11/05 10:13:00;;;;;;;17.30;13.53;;;10.80;99.90;;;;;;5073229;28;20197;-75
2022/11/05 10:15:31;;;;;;;16.90;13.00;;;10.90;99.90;;;;;;5086634;28;20192;-75
2022/11/05 10:18:03;;;;;;;13.47;11.33;;;11.00;99.90;;;;;;5093642;28;20211;-76
2022/11/05 10:20:33;;;;;;;13.37;10.97;;;11.00;99.90;;;;;;5092537;28;20682;-75
2022/11/05 10:23:09;;;;;;;11.97;10.50;;;11.00;99.90;;;;;;5093198;28;20200;-76
2022/11/05 10:25:39;;;;;;;12.00;10.70;;;11.10;99.90;;;;;;5092831;28;20220;-76
2022/11/05 10:28:09;;;;;;;13.33;10.90;;;11.20;99.90;;;;;;5093284;28;20204;-76
2022/11/05 10:30:36;;;;;;;13.90;11.17;;;11.10;99.90;;;;;;5092665;28;20238;-76
2022/11/05 10:33:05;;;;;;;12.83;10.70;;;11.40;99.90;;;;;;5092989;28;20241;-75
2022/11/05 10:35:35;;;;;;;12.20;10.90;;;11.50;99.90;;;;;;5092724;28;20196;-75
2022/11/05 10:38:02;;;;;;;14.37;11.57;;;11.50;99.90;;;;;;5092786;28;20659;-76
2022/11/05 10:40:37;;;;;;;12.33;10.53;;;11.50;99.90;;;;;;5092656;28;20249;-75
2022/11/05 10:43:10;;;;;;;11.60;10.40;;;11.50;99.90;;;;;;5092860;28;20196;-75
2022/11/05 10:45:50;;;;;;;12.77;10.53;;;11.30;99.90;;;;;;5091921;28;20216;-75
2022/11/05 10:48:32;;;;;;;11.93;10.53;;;11.10;99.90;;;;;;5092644;28;20195;-75
2022/11/05 10:50:59;;;;;;;18.43;13.60;;;10.80;99.90;;;;;;5092435;28;20532;-75
2022/11/05 10:53:29;;;;;;;17.37;14.47;;;10.40;99.90;;;;;;5092673;28;20192;-74
2022/11/05 10:55:57;;;;;;;21.37;15.43;;;9.80;99.90;;;;;;5092520;28;20559;-71
2022/11/05 10:58:27;;;;;;;24.47;17.37;;;9.60;99.90;;;;;;5092671;28;20203;-72
2022/11/05 11:01:10;;;;;;;24.93;17.80;;;9.50;99.90;;;;;;5092653;28;20245;-72
2022/11/05 11:03:41;;;;;;;24.13;18.00;;;9.30;99.90;;;;;;5092432;28;20191;-72
2022/11/05 11:06:21;;;;;;;22.43;17.60;;;9.30;99.90;;;;;;5092320;28;20277;-72
2022/11/05 11:08:49;;;;;;;27.03;20.33;;;9.10;99.90;;;;;;5092695;28;20202;-72
2022/11/05 11:11:28;;;;;;;24.17;17.43;;;9.10;99.90;;;;;;5092467;28;20199;-72
2022/11/05 11:14:02;;;;;;;23.73;17.13;;;9.00;99.90;;;;;;5093169;28;20291;-72
2022/11/05 11:16:35;;;;;;;18.73;14.57;;;9.00;99.90;;;;;;5092514;28;20597;-72
2022/11/05 11:19:03;;;;;;;18.27;14.83;;;8.90;99.90;;;;;;5092667;28;20196;-74
2022/11/05 11:21:31;;;;;;;21.50;15.27;;;8.80;99.90;;;;;;5092783;28;20204;-72
2022/11/05 11:23:59;;;;;;;19.00;14.23;;;8.90;99.90;;;;;;5092522;28;20655;-72
2022/11/05 11:26:29;;;;;;;19.27;15.37;;;8.70;99.90;;;;;;5092738;28;20760;-72
2022/11/05 11:28:59;;;;;;;20.57;15.37;;;8.70;99.90;;;;;;5092589;28;20245;-71
2022/11/05 11:31:29;;;;;;;18.73;15.10;;;8.70;99.90;;;;;;5092556;28;20196;-72
2022/11/05 11:34:00;;;;;;;18.37;14.53;;;8.70;99.90;;;;;;5095936;28;20195;-72
2022/11/05 11:36:34;;;;;;;17.03;14.17;;;8.70;99.90;;;;;;5096524;28;20196;-72
2022/11/05 11:39:03;;;;;;;16.40;12.87;;;8.60;99.90;;;;;;5096655;28;20195;-73
2022/11/05 11:41:33;;;;;;;14.40;12.47;;;8.60;99.90;;;;;;5096323;28;20663;-71
2022/11/05 11:44:06;;;;;;;14.30;12.23;;;8.60;99.90;;;;;;5096512;28;20204;-72
2022/11/05 11:46:35;;;;;;;13.40;11.87;;;8.60;99.90;;;;;;5096480;28;20224;-71
2022/11/05 11:49:03;;;;;;;15.53;12.50;;;8.60;99.90;;;;;;5096424;28;20200;-71
2022/11/05 11:51:35;;;;;;;14.43;11.77;;;8.70;99.90;;;;;;5096375;28;20199;-72
2022/11/05 11:54:03;;;;;;;13.87;11.07;;;8.70;99.90;;;;;;5096160;28;20200;-75
2022/11/05 11:56:41;;;;;;;14.23;11.63;;;8.80;99.90;;;;;;5096561;28;20249;-96
2022/11/05 11:59:20;;;;;;;14.07;11.47;;;9.10;99.90;;;;;;5096403;28;20196;-73
2022/11/05 12:02:10;;;;;;;14.40;12.67;;;9.20;99.90;;;;;;5095969;28;20192;-73
2022/11/05 12:05:12;;;;;;;11.20;10.00;;;9.40;99.90;;;;;;5095480;28;20274;-73
2022/11/05 12:07:48;;;;;;;10.70;9.60;;;9.60;99.90;;;;;;5096200;28;20249;-73
2022/11/05 12:10:35;;;;;;;10.00;8.73;;;9.70;99.90;;;;;;5096121;28;20195;-73
2022/11/05 12:13:44;;;;;;;9.17;8.23;;;9.70;99.90;;;;;;5095874;28;20199;-73
2022/11/05 12:16:20;;;;;;;9.60;8.60;;;9.80;99.90;;;;;;5092031;28;20234;-72
2022/11/05 12:18:53;;;;;;;10.77;9.00;;;9.90;99.90;;;;;;5093173;28;20225;-73
2022/11/05 12:21:32;;;;;;;11.07;9.97;;;10.10;99.90;;;;;;5081038;28;20201;-73
2022/11/05 12:24:21;;;;;;;11.63;9.57;;;10.10;99.90;;;;;;5075510;28;20236;-73
2022/11/05 12:26:58;;;;;;;11.07;9.73;;;10.40;99.90;;;;;;5075219;28;20225;-74
2022/11/05 12:29:52;;;;;;;12.23;10.63;;;10.40;99.90;;;;;;5075464;28;20224;-72
2022/11/05 12:32:41;;;;;;;11.23;10.07;;;10.30;99.90;;;;;;5074444;28;20209;-73
2022/11/05 12:35:18;;;;;;;10.93;9.83;;;10.40;99.90;;;;;;5074410;28;20212;-74
2022/11/05 12:37:55;;;;;;;10.30;9.30;;;10.30;99.90;;;;;;5089224;28;20204;-73
2022/11/05 12:40:39;;;;;;;10.47;9.37;;;10.50;99.90;;;;;;5095184;28;20246;-73
2022/11/05 12:43:16;;;;;;;12.13;9.10;;;10.70;99.90;;;;;;5095132;28;20196;-74
2022/11/05 12:45:47;;;;;;;6.60;5.90;;;10.80;99.90;;;;;;5095250;28;20216;-74
2022/11/05 12:48:36;;;;;;;6.50;5.90;;;10.60;99.90;;;;;;5094708;28;20690;-73
2022/11/05 12:51:14;;;;;;;6.63;5.93;;;10.80;99.90;;;;;;5095546;28;20185;-74
2022/11/05 12:53:54;;;;;;;6.30;5.70;;;10.60;99.90;;;;;;5095024;28;20203;-74
2022/11/05 12:56:30;;;;;;;5.90;5.30;;;10.50;99.90;;;;;;5094985;28;20200;-75
2022/11/05 12:59:04;;;;;;;7.50;6.10;;;10.50;99.90;;;;;;5094761;28;20200;-75
2022/11/05 13:01:34;;;;;;;6.43;5.83;;;10.40;99.90;;;;;;5094869;28;20206;-76
2022/11/05 13:04:07;;;;;;;7.60;6.60;;;10.40;99.90;;;;;;5094568;28;20228;-72
2022/11/05 13:06:39;;;;;;;9.47;8.43;;;10.20;99.90;;;;;;5094754;28;20326;-73
2022/11/05 13:09:12;;;;;;;12.90;10.90;;;10.20;99.90;;;;;;5076638;28;20231;-74
2022/11/05 13:11:44;;;;;;;8.80;8.00;;;10.40;99.90;;;;;;5074369;28;20205;-73
2022/11/05 13:14:14;;;;;;;7.77;6.97;;;10.40;99.90;;;;;;5074382;28;20261;-73
2022/11/05 13:16:45;;;;;;;7.13;6.20;;;10.40;99.90;;;;;;5074438;28;20192;-73
2022/11/05 13:19:18;;;;;;;7.30;6.60;;;10.40;99.90;;;;;;5074266;28;20253;-74
2022/11/05 13:21:49;;;;;;;7.10;6.37;;;10.40;99.90;;;;;;5074216;28;20192;-74
2022/11/05 13:24:22;;;;;;;9.87;8.53;;;10.30;99.90;;;;;;5074088;28;20211;-74
2022/11/05 13:26:53;;;;;;;10.53;8.50;;;10.20;99.90;;;;;;5074222;28;20278;-74
2022/11/05 13:29:25;;;;;;;9.23;8.33;;;10.20;99.90;;;;;;5074013;28;20660;-74
2022/11/05 13:31:56;;;;;;;12.20;9.70;;;10.10;99.90;;;;;;5073990;28;20610;-74